sensor_id;sensor_type;location;lat;lon;timestamp;pressure;altitude;pressure_sealevel;temperature;humidity
10097;BME280;5087;42.662;23.466;2023-11-19T00:02:25;95346.75;;;2.17;100.00
10097;BME280;5087;42.662;23.466;2023-11-19T00:04:55;95351.81;;;2.19;100.00
10097;BME280;5087;42.662;23.466;2023-11-19T00:07:22;95355.28;;;2.19;100.00
10097;BME280;5087;42.662;23.466;2023-11-19T00:09:49;95342.44;;;2.16;100.00
10097;BME280;5087;42.662;23.466;2023-11-19T00:12:16;95334.66;;;2.10;100.00
10097;BME280;5087;42.662;23.466;2023-11-19T00:14:44;95354.75;;;2.12;100.00
10097;BME280;5087;42.662;23.466;2023-11-19T00:17:13;95361.72;;;2.08;100.00
10097;BME280;5087;42.662;23.466;2023-11-19T00:19:40;95353.66;;;2.08;100.00
10097;BME280;5087;42.662;23.466;2023-11-19T00:22:07;95346.97;;;2.05;100.00
10097;BME280;5087;42.662;23.466;2023-11-19T00:24:34;95338.66;;;2.07;100.00
10097;BME280;5087;42.662;23.466;2023-11-19T00:27:02;95357.97;;;2.19;100.00
10097;BME280;5087;42.662;23.466;2023-11-19T00:29:29;95363.09;;;2.21;100.00
10097;BME280;5087;42.662;23.466;2023-11-19T00:31:56;95339.72;;;2.06;100.00
10097;BME280;5087;42.662;23.466;2023-11-19T00:34:25;95355.28;;;2.14;100.00
10097;BME280;5087;42.662;23.466;2023-11-19T00:36:53;95353.16;;;2.16;100.00
10097;BME280;5087;42.662;23.466;2023-11-19T00:39:21;95358.25;;;2.18;100.00
10097;BME280;5087;42.662;23.466;2023-11-19T00:41:48;95370.03;;;2.17;100.00
10097;BME280;5087;42.662;23.466;2023-11-19T00:44:15;95346.16;;;2.05;100.00
10097;BME280;5087;42.662;23.466;2023-11-19T00:46:42;95361.16;;;2.06;100.00
10097;BME280;5087;42.662;23.466;2023-11-19T00:49:09;95377.78;;;2.13;100.00
10097;BME280;5087;42.662;23.466;2023-11-19T00:51:39;95345.63;;;2.08;100.00
10097;BME280;5087;42.662;23.466;2023-11-19T00:54:09;95363.06;;;2.16;100.00
10097;BME280;5087;42.662;23.466;2023-11-19T00:56:36;95360.38;;;2.11;100.00
10097;BME280;5087;42.662;23.466;2023-11-19T00:59:04;95374.03;;;2.19;100.00
10097;BME280;5087;42.662;23.466;2023-11-19T01:01:32;95349.63;;;2.00;100.00
10097;BME280;5087;42.662;23.466;2023-11-19T01:03:59;95377.22;;;2.11;100.00
10097;BME280;5087;42.662;23.466;2023-11-19T01:06:30;95396.00;;;2.16;100.00
10097;BME280;5087;42.662;23.466;2023-11-19T01:08:58;95391.72;;;2.10;100.00
10097;BME280;5087;42.662;23.466;2023-11-19T01:11:26;95379.66;;;2.13;100.00
10097;BME280;5087;42.662;23.466;2023-11-19T01:13:54;95401.09;;;2.13;100.00
10097;BME280;5087;42.662;23.466;2023-11-19T01:16:52;95370.25;;;2.00;100.00
10097;BME280;5087;42.662;23.466;2023-11-19T01:19:21;95390.09;;;2.09;100.00
10097;BME280;5087;42.662;23.466;2023-11-19T01:21:50;95385.25;;;2.06;100.00
10097;BME280;5087;42.662;23.466;2023-11-19T01:24:19;95378.53;;;1.98;100.00
10097;BME280;5087;42.662;23.466;2023-11-19T01:26:46;95383.63;;;2.00;100.00
10097;BME280;5087;42.662;23.466;2023-11-19T01:29:13;95350.34;;;1.80;100.00
10097;BME280;5087;42.662;23.466;2023-11-19T01:31:45;95365.38;;;1.92;100.00
10097;BME280;5087;42.662;23.466;2023-11-19T01:34:13;95386.31;;;2.00;100.00
10097;BME280;5087;42.662;23.466;2023-11-19T01:36:41;95387.66;;;2.02;100.00
10097;BME280;5087;42.662;23.466;2023-11-19T01:39:08;95380.41;;;1.98;100.00
10097;BME280;5087;42.662;23.466;2023-11-19T01:41:37;95392.72;;;1.99;100.00
10097;BME280;5087;42.662;23.466;2023-11-19T01:44:06;95381.75;;;2.00;100.00
10097;BME280;5087;42.662;23.466;2023-11-19T01:46:34;95393.22;;;1.90;100.00
10097;BME280;5087;42.662;23.466;2023-11-19T01:49:03;95390.31;;;2.02;100.00
10097;BME280;5087;42.662;23.466;2023-11-19T01:51:31;95381.47;;;1.97;100.00
10097;BME280;5087;42.662;23.466;2023-11-19T01:54:01;95385.19;;;1.96;100.00
10097;BME280;5087;42.662;23.466;2023-11-19T01:56:30;95384.69;;;1.94;100.00
10097;BME280;5087;42.662;23.466;2023-11-19T01:59:00;95411.19;;;2.00;100.00
10097;BME280;5087;42.662;23.466;2023-11-19T02:01:29;95404.56;;;2.08;100.00
10097;BME280;5087;42.662;23.466;2023-11-19T02:03:58;95394.31;;;1.95;100.00
10097;BME280;5087;42.662;23.466;2023-11-19T02:06:26;95410.97;;;2.02;100.00
10097;BME280;5087;42.662;23.466;2023-11-19T02:08:54;95410.97;;;2.02;100.00
10097;BME280;5087;42.662;23.466;2023-11-19T02:11:22;95399.69;;;1.95;100.00
10097;BME280;5087;42.662;23.466;2023-11-19T02:13:54;95371.78;;;1.85;100.00
10097;BME280;5087;42.662;23.466;2023-11-19T02:16:24;95366.66;;;1.79;100.00
10097;BME280;5087;42.662;23.466;2023-11-19T02:18:52;95363.19;;;1.78;100.00
10097;BME280;5087;42.662;23.466;2023-11-19T02:21:19;95380.09;;;1.89;100.00
10097;BME280;5087;42.662;23.466;2023-11-19T02:23:47;95372.50;;;1.65;100.00
10097;BME280;5087;42.662;23.466;2023-11-19T02:26:17;95355.88;;;1.63;100.00
10097;BME280;5087;42.662;23.466;2023-11-19T02:28:46;95378.72;;;1.81;100.00
10097;BME280;5087;42.662;23.466;2023-11-19T02:31:14;95395.88;;;1.85;100.00
10097;BME280;5087;42.662;23.466;2023-11-19T02:33:41;95404.47;;;1.87;100.00
10097;BME280;5087;42.662;23.466;2023-11-19T02:36:09;95415.47;;;1.96;100.00
10097;BME280;5087;42.662;23.466;2023-11-19T02:38:37;95408.22;;;1.97;100.00
10097;BME280;5087;42.662;23.466;2023-11-19T02:41:05;95373.34;;;1.76;100.00
10097;BME280;5087;42.662;23.466;2023-11-19T02:43:33;95387.06;;;1.90;100.00
10097;BME280;5087;42.662;23.466;2023-11-19T02:46:03;95385.72;;;1.87;100.00
10097;BME280;5087;42.662;23.466;2023-11-19T02:48:32;95367.94;;;1.66;100.00
10097;BME280;5087;42.662;23.466;2023-11-19T02:51:00;95376.81;;;1.71;100.00
10097;BME280;5087;42.662;23.466;2023-11-19T02:53:29;95428.56;;;1.93;100.00
10097;BME280;5087;42.662;23.466;2023-11-19T02:55:57;95414.06;;;1.83;100.00
10097;BME280;5087;42.662;23.466;2023-11-19T02:58:32;95392.16;;;1.86;100.00
10097;BME280;5087;42.662;23.466;2023-11-19T03:01:02;95406.09;;;1.94;100.00
10097;BME280;5087;42.662;23.466;2023-11-19T03:03:39;95395.91;;;1.96;100.00
10097;BME280;5087;42.662;23.466;2023-11-19T03:06:07;95367.69;;;1.67;100.00
10097;BME280;5087;42.662;23.466;2023-11-19T03:08:36;95379.19;;;1.68;100.00
10097;BME280;5087;42.662;23.466;2023-11-19T03:11:07;95378.41;;;1.72;100.00
10097;BME280;5087;42.662;23.466;2023-11-19T03:13:35;95371.22;;;1.78;100.00
10097;BME280;5087;42.662;23.466;2023-11-19T03:16:06;95380.34;;;1.82;100.00
10097;BME280;5087;42.662;23.466;2023-11-19T03:18:36;95360.66;;;1.56;100.00
10097;BME280;5087;42.662;23.466;2023-11-19T03:21:05;95399.03;;;1.72;100.00
10097;BME280;5087;42.662;23.466;2023-11-19T03:23:32;95419.19;;;1.90;100.00
10097;BME280;5087;42.662;23.466;2023-11-19T03:26:00;95416.25;;;1.92;100.00
10097;BME280;5087;42.662;23.466;2023-11-19T03:28:29;95388.06;;;1.79;100.00
10097;BME280;5087;42.662;23.466;2023-11-19T03:30:58;95398.00;;;1.78;100.00
10097;BME280;5087;42.662;23.466;2023-11-19T03:33:26;95399.63;;;1.84;100.00
10097;BME280;5087;42.662;23.466;2023-11-19T03:35:54;95386.16;;;1.69;100.00
10097;BME280;5087;42.662;23.466;2023-11-19T03:38:23;95385.59;;;1.67;100.00
10097;BME280;5087;42.662;23.466;2023-11-19T03:40:50;95379.97;;;1.63;100.00
10097;BME280;5087;42.662;23.466;2023-11-19T03:43:17;95382.06;;;1.51;100.00
10097;BME280;5087;42.662;23.466;2023-11-19T03:45:45;95403.00;;;1.69;100.00
10097;BME280;5087;42.662;23.466;2023-11-19T03:48:13;95386.63;;;1.55;100.00
10097;BME280;5087;42.662;23.466;2023-11-19T03:50:44;95422.84;;;1.73;100.00
10097;BME280;5087;42.662;23.466;2023-11-19T03:53:11;95380.94;;;1.47;100.00
10097;BME280;5087;42.662;23.466;2023-11-19T03:55:39;95423.13;;;1.72;100.00
10097;BME280;5087;42.662;23.466;2023-11-19T03:58:06;95411.03;;;1.64;100.00
10097;BME280;5087;42.662;23.466;2023-11-19T04:00:34;95412.66;;;1.70;100.00
10097;BME280;5087;42.662;23.466;2023-11-19T04:03:02;95389.03;;;1.57;100.00
10097;BME280;5087;42.662;23.466;2023-11-19T04:05:32;95398.41;;;1.60;100.00
10097;BME280;5087;42.662;23.466;2023-11-19T04:08:01;95401.63;;;1.56;100.00
10097;BME280;5087;42.662;23.466;2023-11-19T04:10:32;95427.63;;;1.66;100.00
10097;BME280;5087;42.662;23.466;2023-11-19T04:12:59;95416.38;;;1.64;100.00
10097;BME280;5087;42.662;23.466;2023-11-19T04:15:26;95429.00;;;1.74;100.00
10097;BME280;5087;42.662;23.466;2023-11-19T04:17:55;95378.91;;;1.21;100.00
10097;BME280;5087;42.662;23.466;2023-11-19T04:20:22;95395.66;;;1.44;100.00
10097;BME280;5087;42.662;23.466;2023-11-19T04:22:50;95433.75;;;1.62;100.00
10097;BME280;5087;42.662;23.466;2023-11-19T04:25:20;95401.47;;;1.36;100.00
10097;BME280;5087;42.662;23.466;2023-11-19T04:27:50;95409.56;;;1.46;100.00
10097;BME280;5087;42.662;23.466;2023-11-19T04:30:17;95409.50;;;1.36;100.00
10097;BME280;5087;42.662;23.466;2023-11-19T04:32:45;95375.78;;;1.35;100.00
10097;BME280;5087;42.662;23.466;2023-11-19T04:35:15;95378.88;;;1.16;100.00
10097;BME280;5087;42.662;23.466;2023-11-19T04:37:44;95439.91;;;1.62;100.00
10097;BME280;5087;42.662;23.466;2023-11-19T04:40:13;95454.59;;;1.54;100.00
10097;BME280;5087;42.662;23.466;2023-11-19T04:42:42;95422.84;;;1.31;100.00
10097;BME280;5087;42.662;23.466;2023-11-19T04:45:10;95446.28;;;1.56;100.00
10097;BME280;5087;42.662;23.466;2023-11-19T04:47:37;95438.25;;;1.51;100.00
10097;BME280;5087;42.662;23.466;2023-11-19T04:50:05;95437.50;;;1.61;100.00
10097;BME280;5087;42.662;23.466;2023-11-19T04:52:32;95377.78;;;1.12;100.00
10097;BME280;5087;42.662;23.466;2023-11-19T04:55:00;95423.13;;;1.29;100.00
10097;BME280;5087;42.662;23.466;2023-11-19T04:57:27;95472.56;;;1.64;100.00
10097;BME280;5087;42.662;23.466;2023-11-19T04:59:56;95441.72;;;1.51;100.00
10097;BME280;5087;42.662;23.466;2023-11-19T05:02:24;95434.69;;;1.40;100.00
10097;BME280;5087;42.662;23.466;2023-11-19T05:04:51;95435.66;;;1.29;100.00
10097;BME280;5087;42.662;23.466;2023-11-19T05:07:18;95462.81;;;1.48;100.00
10097;BME280;5087;42.662;23.466;2023-11-19T05:09:46;95453.31;;;1.30;100.00
10097;BME280;5087;42.662;23.466;2023-11-19T05:12:13;95493.69;;;1.61;100.00
10097;BME280;5087;42.662;23.466;2023-11-19T05:14:41;95488.50;;;1.49;100.00
10097;BME280;5087;42.662;23.466;2023-11-19T05:17:15;95487.72;;;1.48;100.00
10097;BME280;5087;42.662;23.466;2023-11-19T05:19:43;95492.03;;;1.54;100.00
10097;BME280;5087;42.662;23.466;2023-11-19T05:22:10;95477.22;;;1.41;100.00
10097;BME280;5087;42.662;23.466;2023-11-19T05:24:39;95430.75;;;1.15;100.00
10097;BME280;5087;42.662;23.466;2023-11-19T05:27:06;95454.44;;;1.34;100.00
10097;BME280;5087;42.662;23.466;2023-11-19T05:29:34;95465.47;;;1.42;100.00
10097;BME280;5087;42.662;23.466;2023-11-19T05:32:02;95477.31;;;1.52;100.00
10097;BME280;5087;42.662;23.466;2023-11-19T05:34:34;95486.97;;;1.58;100.00
10097;BME280;5087;42.662;23.466;2023-11-19T05:37:01;95431.03;;;1.19;100.00
10097;BME280;5087;42.662;23.466;2023-11-19T05:39:29;95503.25;;;1.51;100.00
10097;BME280;5087;42.662;23.466;2023-11-19T05:41:57;95475.09;;;1.44;100.00
10097;BME280;5087;42.662;23.466;2023-11-19T05:44:24;95419.38;;;0.98;100.00
10097;BME280;5087;42.662;23.466;2023-11-19T05:46:56;95492.25;;;1.48;100.00
10097;BME280;5087;42.662;23.466;2023-11-19T05:49:26;95513.91;;;1.46;100.00
10097;BME280;5087;42.662;23.466;2023-11-19T05:51:56;95501.63;;;1.50;100.00
10097;BME280;5087;42.662;23.466;2023-11-19T05:54:24;95478.53;;;1.39;100.00
10097;BME280;5087;42.662;23.466;2023-11-19T05:56:52;95459.16;;;1.26;100.00
10097;BME280;5087;42.662;23.466;2023-11-19T05:59:20;95499.94;;;1.39;100.00
10097;BME280;5087;42.662;23.466;2023-11-19T06:01:48;95514.38;;;1.38;100.00
10097;BME280;5087;42.662;23.466;2023-11-19T06:04:16;95502.03;;;1.32;100.00
10097;BME280;5087;42.662;23.466;2023-11-19T06:06:43;95518.66;;;1.39;100.00
10097;BME280;5087;42.662;23.466;2023-11-19T06:09:12;95497.63;;;1.20;100.00
10097;BME280;5087;42.662;23.466;2023-11-19T06:11:39;95527.75;;;1.38;100.00
10097;BME280;5087;42.662;23.466;2023-11-19T06:14:07;95498.75;;;1.24;100.00
10097;BME280;5087;42.662;23.466;2023-11-19T06:16:34;95531.88;;;1.51;100.00
10097;BME280;5087;42.662;23.466;2023-11-19T06:19:02;95501.50;;;1.35;100.00
10097;BME280;5087;42.662;23.466;2023-11-19T06:21:32;95493.19;;;1.31;100.00
10097;BME280;5087;42.662;23.466;2023-11-19T06:24:01;95483.75;;;1.18;100.00
10097;BME280;5087;42.662;23.466;2023-11-19T06:26:31;95522.25;;;1.50;100.00
10097;BME280;5087;42.662;23.466;2023-11-19T06:28:59;95501.78;;;1.38;100.00
10097;BME280;5087;42.662;23.466;2023-11-19T06:31:26;95476.22;;;1.15;100.00
10097;BME280;5087;42.662;23.466;2023-11-19T06:33:54;95476.78;;;1.17;100.00
10097;BME280;5087;42.662;23.466;2023-11-19T06:36:22;95506.53;;;1.26;100.00
10097;BME280;5087;42.662;23.466;2023-11-19T06:38:49;95465.97;;;1.07;100.00
10097;BME280;5087;42.662;23.466;2023-11-19T06:41:16;95483.75;;;1.18;100.00
10097;BME280;5087;42.662;23.466;2023-11-19T06:43:45;95473.25;;;1.12;100.00
10097;BME280;5087;42.662;23.466;2023-11-19T06:46:19;95495.31;;;1.29;100.00
10097;BME280;5087;42.662;23.466;2023-11-19T06:48:46;95511.88;;;1.26;100.00
10097;BME280;5087;42.662;23.466;2023-11-19T06:51:14;95511.06;;;1.25;100.00
10097;BME280;5087;42.662;23.466;2023-11-19T06:53:42;95507.81;;;1.18;100.00
10097;BME280;5087;42.662;23.466;2023-11-19T06:56:18;95534.47;;;1.40;100.00
10097;BME280;5087;42.662;23.466;2023-11-19T06:58:47;95527.13;;;1.25;100.00
10097;BME280;5087;42.662;23.466;2023-11-19T07:01:15;95501.47;;;1.30;100.00
10097;BME280;5087;42.662;23.466;2023-11-19T07:03:44;95537.41;;;1.39;100.00
10097;BME280;5087;42.662;23.466;2023-11-19T07:06:14;95545.75;;;1.48;100.00
10097;BME280;5087;42.662;23.466;2023-11-19T07:08:42;95505.72;;;1.25;100.00
10097;BME280;5087;42.662;23.466;2023-11-19T07:11:11;95552.75;;;1.54;100.00
10097;BME280;5087;42.662;23.466;2023-11-19T07:13:42;95495.22;;;0.91;100.00
10097;BME280;5087;42.662;23.466;2023-11-19T07:16:11;95553.09;;;1.30;100.00
10097;BME280;5087;42.662;23.466;2023-11-19T07:18:39;95494.38;;;1.13;100.00
10097;BME280;5087;42.662;23.466;2023-11-19T07:21:07;95569.50;;;1.39;100.00
10097;BME280;5087;42.662;23.466;2023-11-19T07:23:36;95579.16;;;1.40;100.00
10097;BME280;5087;42.662;23.466;2023-11-19T07:26:07;95523.47;;;1.09;100.00
10097;BME280;5087;42.662;23.466;2023-11-19T07:28:35;95556.59;;;1.31;100.00
10097;BME280;5087;42.662;23.466;2023-11-19T07:31:11;95571.75;;;1.52;100.00
10097;BME280;5087;42.662;23.466;2023-11-19T07:33:40;95528.09;;;1.19;100.00
10097;BME280;5087;42.662;23.466;2023-11-19T07:36:09;95589.88;;;1.45;100.00
10097;BME280;5087;42.662;23.466;2023-11-19T07:38:36;95518.22;;;0.92;100.00
10097;BME280;5087;42.662;23.466;2023-11-19T07:41:04;95587.16;;;1.40;100.00
10097;BME280;5087;42.662;23.466;2023-11-19T07:43:32;95564.56;;;1.25;100.00
10097;BME280;5087;42.662;23.466;2023-11-19T07:46:00;95583.97;;;1.43;100.00
10097;BME280;5087;42.662;23.466;2023-11-19T07:48:31;95571.41;;;1.16;100.00
10097;BME280;5087;42.662;23.466;2023-11-19T07:51:01;95591.75;;;1.45;100.00
10097;BME280;5087;42.662;23.466;2023-11-19T07:53:28;95552.25;;;1.24;100.00
10097;BME280;5087;42.662;23.466;2023-11-19T07:55:56;95535.03;;;1.15;100.00
10097;BME280;5087;42.662;23.466;2023-11-19T07:58:26;95558.06;;;1.16;100.00
10097;BME280;5087;42.662;23.466;2023-11-19T08:00:53;95528.81;;;1.09;100.00
10097;BME280;5087;42.662;23.466;2023-11-19T08:03:20;95560.56;;;1.28;100.00
10097;BME280;5087;42.662;23.466;2023-11-19T08:05:50;95547.44;;;1.26;100.00
10097;BME280;5087;42.662;23.466;2023-11-19T08:08:18;95607.97;;;1.60;100.00
10097;BME280;5087;42.662;23.466;2023-11-19T08:10:45;95584.84;;;1.49;100.00
10097;BME280;5087;42.662;23.466;2023-11-19T08:13:13;95538.44;;;1.38;100.00
10097;BME280;5087;42.662;23.466;2023-11-19T08:15:41;95595.94;;;1.63;100.00
10097;BME280;5087;42.662;23.466;2023-11-19T08:18:08;95522.59;;;1.31;100.00
10097;BME280;5087;42.662;23.466;2023-11-19T08:20:36;95582.00;;;1.61;100.00
10097;BME280;5087;42.662;23.466;2023-11-19T08:23:06;95607.00;;;1.77;100.00
10097;BME280;5087;42.662;23.466;2023-11-19T08:25:33;95586.84;;;1.64;100.00
10097;BME280;5087;42.662;23.466;2023-11-19T08:28:09;95561.72;;;1.65;100.00
10097;BME280;5087;42.662;23.466;2023-11-19T08:30:37;95601.25;;;1.90;100.00
10097;BME280;5087;42.662;23.466;2023-11-19T08:33:07;95581.63;;;1.79;100.00
10097;BME280;5087;42.662;23.466;2023-11-19T08:35:35;95566.06;;;1.76;100.00
10097;BME280;5087;42.662;23.466;2023-11-19T08:38:03;95512.78;;;1.42;100.00
10097;BME280;5087;42.662;23.466;2023-11-19T08:40:36;95569.72;;;1.97;100.00
10097;BME280;5087;42.662;23.466;2023-11-19T08:43:07;95605.53;;;2.29;100.00
10097;BME280;5087;42.662;23.466;2023-11-19T08:45:35;95559.75;;;1.87;100.00
10097;BME280;5087;42.662;23.466;2023-11-19T08:48:05;95513.50;;;1.27;100.00
10097;BME280;5087;42.662;23.466;2023-11-19T08:50:33;95557.28;;;1.48;100.00
10097;BME280;5087;42.662;23.466;2023-11-19T08:53:00;95579.78;;;1.52;100.00
10097;BME280;5087;42.662;23.466;2023-11-19T08:55:28;95576.19;;;1.69;100.00
10097;BME280;5087;42.662;23.466;2023-11-19T08:57:56;95527.19;;;1.36;100.00
10097;BME280;5087;42.662;23.466;2023-11-19T09:00:24;95622.13;;;1.61;100.00
10097;BME280;5087;42.662;23.466;2023-11-19T09:02:52;95611.09;;;1.84;100.00
10097;BME280;5087;42.662;23.466;2023-11-19T09:05:19;95581.38;;;1.81;100.00
10097;BME280;5087;42.662;23.466;2023-11-19T09:07:46;95606.16;;;2.03;100.00
10097;BME280;5087;42.662;23.466;2023-11-19T09:10:15;95570.00;;;2.01;100.00
10097;BME280;5087;42.662;23.466;2023-11-19T09:12:42;95528.69;;;1.92;100.00
10097;BME280;5087;42.662;23.466;2023-11-19T09:15:11;95590.16;;;2.57;100.00
10097;BME280;5087;42.662;23.466;2023-11-19T09:17:39;95569.31;;;2.69;100.00
10097;BME280;5087;42.662;23.466;2023-11-19T09:20:08;95544.13;;;2.80;100.00
10097;BME280;5087;42.662;23.466;2023-11-19T09:22:37;95590.44;;;3.34;100.00
10097;BME280;5087;42.662;23.466;2023-11-19T09:25:05;95567.75;;;2.83;100.00
10097;BME280;5087;42.662;23.466;2023-11-19T09:27:35;95527.28;;;2.27;100.00
10097;BME280;5087;42.662;23.466;2023-11-19T09:30:03;95597.75;;;2.80;100.00
10097;BME280;5087;42.662;23.466;2023-11-19T09:32:34;95508.38;;;2.49;100.00
10097;BME280;5087;42.662;23.466;2023-11-19T09:35:04;95590.28;;;2.88;100.00
10097;BME280;5087;42.662;23.466;2023-11-19T09:37:32;95585.50;;;2.95;100.00
10097;BME280;5087;42.662;23.466;2023-11-19T09:40:00;95523.50;;;2.76;100.00
10097;BME280;5087;42.662;23.466;2023-11-19T09:42:27;95589.94;;;2.68;100.00
10097;BME280;5087;42.662;23.466;2023-11-19T09:44:58;95526.28;;;2.38;100.00
10097;BME280;5087;42.662;23.466;2023-11-19T09:47:27;95565.31;;;2.77;100.00
10097;BME280;5087;42.662;23.466;2023-11-19T09:49:58;95500.13;;;2.66;100.00
10097;BME280;5087;42.662;23.466;2023-11-19T09:52:25;95538.81;;;2.91;100.00
10097;BME280;5087;42.662;23.466;2023-11-19T09:54:53;95517.53;;;2.58;100.00
10097;BME280;5087;42.662;23.466;2023-11-19T09:57:20;95498.72;;;2.48;100.00
10097;BME280;5087;42.662;23.466;2023-11-19T09:59:48;95492.34;;;2.64;100.00
10097;BME280;5087;42.662;23.466;2023-11-19T10:02:18;95567.06;;;3.14;100.00
10097;BME280;5087;42.662;23.466;2023-11-19T10:04:46;95552.72;;;2.82;100.00
10097;BME280;5087;42.662;23.466;2023-11-19T10:07:17;95540.38;;;2.71;100.00
10097;BME280;5087;42.662;23.466;2023-11-19T10:09:44;95517.50;;;2.53;100.00
10097;BME280;5087;42.662;23.466;2023-11-19T10:12:13;95518.59;;;2.57;100.00
10097;BME280;5087;42.662;23.466;2023-11-19T10:14:43;95450.09;;;2.18;100.00
10097;BME280;5087;42.662;23.466;2023-11-19T10:17:11;95528.22;;;2.53;100.00
10097;BME280;5087;42.662;23.466;2023-11-19T10:19:40;95518.09;;;2.65;100.00
10097;BME280;5087;42.662;23.466;2023-11-19T10:22:08;95540.44;;;2.87;100.00
10097;BME280;5087;42.662;23.466;2023-11-19T10:24:37;95496.53;;;2.40;100.00
10097;BME280;5087;42.662;23.466;2023-11-19T10:27:07;95531.28;;;2.82;100.00
10097;BME280;5087;42.662;23.466;2023-11-19T10:29:36;95522.56;;;3.49;100.00
10097;BME280;5087;42.662;23.466;2023-11-19T10:32:04;95478.50;;;3.96;100.00
10097;BME280;5087;42.662;23.466;2023-11-19T10:34:32;95486.28;;;3.88;100.00
10097;BME280;5087;42.662;23.466;2023-11-19T10:36:59;95508.06;;;3.76;100.00
10097;BME280;5087;42.662;23.466;2023-11-19T10:39:54;95509.94;;;3.91;100.00
10097;BME280;5087;42.662;23.466;2023-11-19T10:42:22;95474.75;;;3.98;100.00
10097;BME280;5087;42.662;23.466;2023-11-19T10:44:50;95476.66;;;3.76;100.00
10097;BME280;5087;42.662;23.466;2023-11-19T10:47:19;95443.38;;;3.62;100.00
10097;BME280;5087;42.662;23.466;2023-11-19T10:49:48;95512.09;;;3.63;100.00
10097;BME280;5087;42.662;23.466;2023-11-19T10:52:17;95494.63;;;3.71;100.00
10097;BME280;5087;42.662;23.466;2023-11-19T10:54:49;95531.91;;;4.19;100.00
10097;BME280;5087;42.662;23.466;2023-11-19T10:57:21;95510.44;;;4.14;100.00
10097;BME280;5087;42.662;23.466;2023-11-19T10:59:52;95531.94;;;4.03;100.00
10097;BME280;5087;42.662;23.466;2023-11-19T11:02:24;95474.72;;;4.03;100.00
10097;BME280;5087;42.662;23.466;2023-11-19T11:04:54;95481.50;;;3.59;100.00
10097;BME280;5087;42.662;23.466;2023-11-19T11:07:22;95489.78;;;3.78;100.00
10097;BME280;5087;42.662;23.466;2023-11-19T11:09:51;95486.84;;;3.74;100.00
10097;BME280;5087;42.662;23.466;2023-11-19T11:12:22;95461.38;;;3.51;100.00
10097;BME280;5087;42.662;23.466;2023-11-19T11:14:52;95424.88;;;3.24;100.00
10097;BME280;5087;42.662;23.466;2023-11-19T11:17:24;95476.63;;;3.92;100.00
10097;BME280;5087;42.662;23.466;2023-11-19T11:19:54;95425.94;;;3.49;100.00
10097;BME280;5087;42.662;23.466;2023-11-19T11:22:22;95443.91;;;3.43;100.00
10097;BME280;5087;42.662;23.466;2023-11-19T11:25:16;95464.56;;;3.53;100.00
10097;BME280;5087;42.662;23.466;2023-11-19T11:28:09;95476.69;;;3.40;100.00
10097;BME280;5087;42.662;23.466;2023-11-19T11:30:55;95427.03;;;3.43;100.00
10097;BME280;5087;42.662;23.466;2023-11-19T11:33:39;95505.59;;;4.10;100.00
10097;BME280;5087;42.662;23.466;2023-11-19T11:36:14;95425.94;;;3.49;100.00
10097;BME280;5087;42.662;23.466;2023-11-19T11:38:48;95447.91;;;3.72;100.00
10097;BME280;5087;42.662;23.466;2023-11-19T11:41:19;95517.44;;;4.04;100.00
10097;BME280;5087;42.662;23.466;2023-11-19T11:43:49;95484.97;;;3.70;100.00
10097;BME280;5087;42.662;23.466;2023-11-19T11:46:55;95490.06;;;3.66;100.00
10097;BME280;5087;42.662;23.466;2023-11-19T11:49:29;95454.63;;;3.74;100.00
10097;BME280;5087;42.662;23.466;2023-11-19T11:52:01;95470.69;;;3.95;100.00
10097;BME280;5087;42.662;23.466;2023-11-19T11:54:29;95454.03;;;3.98;100.00
10097;BME280;5087;42.662;23.466;2023-11-19T11:57:06;95441.19;;;3.74;100.00
10097;BME280;5087;42.662;23.466;2023-11-19T11:59:43;95446.56;;;3.79;100.00
10097;BME280;5087;42.662;23.466;2023-11-19T12:02:12;95494.06;;;4.00;100.00
10097;BME280;5087;42.662;23.466;2023-11-19T12:04:40;95499.19;;;3.80;100.00
10097;BME280;5087;42.662;23.466;2023-11-19T12:07:11;95487.91;;;3.89;100.00
10097;BME280;5087;42.662;23.466;2023-11-19T12:09:40;95434.22;;;3.78;100.00
10097;BME280;5087;42.662;23.466;2023-11-19T12:12:17;95464.25;;;4.01;100.00
10097;BME280;5087;42.662;23.466;2023-11-19T12:15:03;95406.88;;;3.61;100.00
10097;BME280;5087;42.662;23.466;2023-11-19T12:17:42;95459.41;;;4.08;100.00
10097;BME280;5087;42.662;23.466;2023-11-19T12:20:10;95455.53;;;4.40;100.00
10097;BME280;5087;42.662;23.466;2023-11-19T12:22:38;95412.34;;;4.16;100.00
10097;BME280;5087;42.662;23.466;2023-11-19T12:25:06;95423.81;;;4.37;100.00
10097;BME280;5087;42.662;23.466;2023-11-19T12:27:34;95442.09;;;4.35;100.00
10097;BME280;5087;42.662;23.466;2023-11-19T12:30:04;95427.88;;;4.30;100.00
10097;BME280;5087;42.662;23.466;2023-11-19T12:32:39;95444.31;;;4.23;100.00
10097;BME280;5087;42.662;23.466;2023-11-19T12:35:10;95454.69;;;4.45;100.00
10097;BME280;5087;42.662;23.466;2023-11-19T12:37:42;95418.53;;;4.17;100.00
10097;BME280;5087;42.662;23.466;2023-11-19T12:40:14;95415.56;;;4.18;100.00
10097;BME280;5087;42.662;23.466;2023-11-19T12:42:43;95412.06;;;4.23;100.00
10097;BME280;5087;42.662;23.466;2023-11-19T12:45:12;95367.78;;;4.10;100.00
10097;BME280;5087;42.662;23.466;2023-11-19T12:47:40;95410.34;;;4.42;100.00
10097;BME280;5087;42.662;23.466;2023-11-19T12:50:09;95379.69;;;4.43;100.00
10097;BME280;5087;42.662;23.466;2023-11-19T12:52:37;95426.06;;;4.70;100.00
10097;BME280;5087;42.662;23.466;2023-11-19T12:55:26;95406.53;;;4.54;100.00
10097;BME280;5087;42.662;23.466;2023-11-19T12:57:53;95395.75;;;4.59;100.00
10097;BME280;5087;42.662;23.466;2023-11-19T13:00:23;95432.31;;;4.60;100.00
10097;BME280;5087;42.662;23.466;2023-11-19T13:02:55;95399.19;;;4.70;100.00
10097;BME280;5087;42.662;23.466;2023-11-19T13:05:24;95426.47;;;4.98;100.00
10097;BME280;5087;42.662;23.466;2023-11-19T13:08:03;95407.81;;;5.06;100.00
10097;BME280;5087;42.662;23.466;2023-11-19T13:10:33;95423.84;;;4.27;100.00
10097;BME280;5087;42.662;23.466;2023-11-19T13:13:08;95339.34;;;4.04;100.00